createdAt,value
2023-03-01T00:00:10.849Z,-5.07
2023-03-01T00:02:38.763Z,-5.10
2023-03-01T00:05:05.932Z,-5.10
2023-03-01T00:07:32.457Z,-5.10
2023-03-01T00:09:59.033Z,-5.11
2023-03-01T00:12:25.627Z,-5.11
2023-03-01T00:14:52.218Z,-5.14
2023-03-01T00:17:18.901Z,-5.18
2023-03-01T00:19:45.481Z,-5.21
2023-03-01T00:22:12.090Z,-5.24
2023-03-01T00:24:38.675Z,-5.27
2023-03-01T00:27:05.260Z,-5.28
2023-03-01T00:29:31.835Z,-5.28
2023-03-01T00:31:58.424Z,-5.30
2023-03-01T00:34:25.067Z,-5.31
2023-03-01T00:36:51.721Z,-5.37
2023-03-01T00:39:18.318Z,-5.39
2023-03-01T00:41:45.431Z,-5.39
2023-03-01T00:44:12.503Z,-5.42
2023-03-01T00:46:39.806Z,-5.42
2023-03-01T00:49:06.634Z,-5.42
2023-03-01T00:51:33.776Z,-5.45
2023-03-01T00:54:02.790Z,-5.48
2023-03-01T00:56:31.098Z,-5.48
2023-03-01T00:58:58.108Z,-5.47
2023-03-01T01:01:30.620Z,-5.48
2023-03-01T01:04:03.914Z,-5.51
2023-03-01T01:06:33.498Z,-5.54
2023-03-01T01:09:00.817Z,-5.54
2023-03-01T01:11:29.835Z,-5.58
2023-03-01T01:13:57.777Z,-5.61
2023-03-01T01:16:26.104Z,-5.61
2023-03-01T01:18:53.263Z,-5.64
2023-03-01T01:21:22.815Z,-5.64
2023-03-01T01:23:49.868Z,-5.68
2023-03-01T01:26:23.015Z,-5.71
2023-03-01T01:28:49.689Z,-5.72
2023-03-01T01:31:16.410Z,-5.72
2023-03-01T01:33:43.355Z,-5.74
2023-03-01T01:36:10.454Z,-5.74
2023-03-01T01:38:38.535Z,-5.76
2023-03-01T01:41:08.646Z,-5.75
2023-03-01T01:43:38.628Z,-5.75
2023-03-01T01:46:14.061Z,-5.78
2023-03-01T01:48:47.468Z,-5.79
2023-03-01T01:51:19.488Z,-5.83
2023-03-01T01:53:50.728Z,-5.83
2023-03-01T01:56:19.506Z,-5.82
2023-03-01T01:58:48.422Z,-5.82
2023-03-01T02:01:15.063Z,-5.90
2023-03-01T02:03:44.545Z,-5.90
2023-03-01T02:06:11.066Z,-5.86
2023-03-01T02:08:40.087Z,-5.86
2023-03-01T02:11:07.412Z,-5.90
2023-03-01T02:13:35.371Z,-5.92
2023-03-01T02:16:09.094Z,-5.93
2023-03-01T02:18:35.968Z,-5.93
2023-03-01T02:21:27.294Z,-5.96
2023-03-01T02:23:56.646Z,-5.93
2023-03-01T02:26:46.364Z,-5.93
2023-03-01T02:29:13.526Z,-5.95
2023-03-01T02:31:43.086Z,-5.96
2023-03-01T02:34:22.979Z,-5.95
2023-03-01T02:36:56.272Z,-5.95
2023-03-01T02:39:34.239Z,-5.96
2023-03-01T02:42:03.604Z,-5.98
2023-03-01T02:44:30.215Z,-6.00
2023-03-01T02:46:57.955Z,-5.93
2023-03-01T02:49:28.911Z,-5.90
2023-03-01T02:52:33.270Z,-5.83
2023-03-01T02:55:05.377Z,-5.81
2023-03-01T02:57:34.228Z,-5.86
2023-03-01T03:00:08.297Z,-5.90
2023-03-01T03:02:39.454Z,-5.98
2023-03-01T03:05:11.969Z,-6.00
2023-03-01T03:07:41.482Z,-6.02
2023-03-01T03:10:14.726Z,-6.06
2023-03-01T03:12:41.999Z,-6.10
2023-03-01T03:15:10.990Z,-6.11
2023-03-01T03:17:39.212Z,-6.16
2023-03-01T03:20:11.915Z,-6.14
2023-03-01T03:22:41.651Z,-6.16
2023-03-01T03:25:11.789Z,-6.13
2023-03-01T03:27:45.021Z,-6.14
2023-03-01T03:30:14.664Z,-6.17
2023-03-01T03:32:53.720Z,-6.21
2023-03-01T03:35:26.796Z,-6.23
2023-03-01T03:38:06.798Z,-6.24
2023-03-01T03:40:41.037Z,-6.27
2023-03-01T03:43:13.021Z,-6.27
2023-03-01T03:45:39.828Z,-6.30
2023-03-01T03:48:08.814Z,-6.34
2023-03-01T03:50:35.439Z,-6.34
2023-03-01T03:53:03.368Z,-6.36
2023-03-01T03:55:31.703Z,-6.37
2023-03-01T03:58:02.954Z,-6.41
2023-03-01T04:00:29.572Z,-6.42
2023-03-01T04:02:57.444Z,-6.42
2023-03-01T04:05:24.376Z,-6.47
2023-03-01T04:08:02.251Z,-6.44
2023-03-01T04:10:31.356Z,-6.44
2023-03-01T04:12:58.396Z,-6.44
2023-03-01T04:15:28.499Z,-6.42
2023-03-01T04:17:56.020Z,-6.42
2023-03-01T04:20:26.301Z,-6.48
2023-03-01T04:23:01.069Z,-6.50
2023-03-01T04:25:27.656Z,-6.50
2023-03-01T04:27:54.193Z,-6.50
2023-03-01T04:30:21.313Z,-6.52
2023-03-01T04:32:47.914Z,-6.51
2023-03-01T04:35:14.940Z,-6.51
2023-03-01T04:37:42.645Z,-6.54
2023-03-01T04:40:18.069Z,-6.54
2023-03-01T04:42:44.677Z,-6.54
2023-03-01T04:45:14.014Z,-6.54
2023-03-01T04:47:43.690Z,-6.52
2023-03-01T04:50:12.383Z,-6.55
2023-03-01T04:52:39.195Z,-6.57
2023-03-01T04:55:06.765Z,-6.58
2023-03-01T04:57:33.858Z,-6.58
2023-03-01T05:00:00.504Z,-6.58
2023-03-01T05:02:27.359Z,-6.60
2023-03-01T05:04:58.474Z,-6.64
2023-03-01T05:07:25.846Z,-6.62
2023-03-01T05:10:06.383Z,-6.62
2023-03-01T05:12:33.955Z,-6.65
2023-03-01T05:15:01.470Z,-6.65
2023-03-01T05:17:28.135Z,-6.68
2023-03-01T05:19:56.567Z,-6.71
2023-03-01T05:22:24.356Z,-6.71
2023-03-01T05:24:51.192Z,-6.69
2023-03-01T05:27:23.001Z,-6.69
2023-03-01T05:29:49.677Z,-6.77
2023-03-01T05:32:17.236Z,-6.75
2023-03-01T05:34:47.256Z,-6.75
2023-03-01T05:37:14.920Z,-6.75
2023-03-01T05:39:43.252Z,-6.74
2023-03-01T05:42:12.233Z,-6.72
2023-03-01T05:44:39.310Z,-6.74
2023-03-01T05:47:08.091Z,-6.77
2023-03-01T05:49:36.228Z,-6.78
2023-03-01T05:52:04.503Z,-6.78
2023-03-01T05:54:32.216Z,-6.75
2023-03-01T05:56:59.944Z,-6.78
2023-03-01T05:59:26.502Z,-6.77
2023-03-01T06:01:53.039Z,-6.69
2023-03-01T06:04:19.617Z,-6.68
2023-03-01T06:06:46.229Z,-6.61
2023-03-01T06:09:12.926Z,-6.57
2023-03-01T06:11:39.529Z,-6.52
2023-03-01T06:14:07.430Z,-6.51
2023-03-01T06:16:34.478Z,-6.48
2023-03-01T06:19:01.068Z,-6.44
2023-03-01T06:21:27.730Z,-6.37
2023-03-01T06:23:54.326Z,-6.20
2023-03-01T06:26:21.154Z,-6.09
2023-03-01T06:28:47.694Z,-6.02
2023-03-01T06:31:14.503Z,-5.93
2023-03-01T06:33:41.366Z,-5.85
2023-03-01T06:36:08.692Z,-5.69
2023-03-01T06:38:35.463Z,-5.57
2023-03-01T06:41:02.848Z,-5.44
2023-03-01T06:43:29.419Z,-5.28
2023-03-01T06:45:56.441Z,-5.07
2023-03-01T06:48:23.157Z,-4.75
2023-03-01T06:50:49.813Z,-4.49
2023-03-01T06:53:16.731Z,-4.22
2023-03-01T06:55:43.452Z,-3.77
2023-03-01T06:58:10.360Z,-3.62
2023-03-01T07:00:36.939Z,-3.59
2023-03-01T07:03:04.316Z,-3.65
2023-03-01T07:05:31.721Z,-3.65
2023-03-01T07:07:58.626Z,-3.59
2023-03-01T07:10:25.340Z,-3.49
2023-03-01T07:12:55.731Z,-3.27
2023-03-01T07:15:22.351Z,-2.90
2023-03-01T07:17:51.718Z,-2.52
2023-03-01T07:20:23.336Z,-2.16
2023-03-01T07:22:49.891Z,-1.99
2023-03-01T07:25:16.537Z,-1.87
2023-03-01T07:27:43.216Z,-1.63
2023-03-01T07:30:10.777Z,-1.16
2023-03-01T07:32:37.581Z,-0.68
2023-03-01T07:35:04.418Z,-0.26
2023-03-01T07:37:30.943Z,-0.03
2023-03-01T07:39:57.938Z,0.17
2023-03-01T07:42:24.562Z,0.37
2023-03-01T07:44:51.131Z,0.90
2023-03-01T07:47:17.642Z,1.13
2023-03-01T07:49:45.129Z,1.40
2023-03-01T07:52:12.884Z,1.55
2023-03-01T07:54:39.829Z,1.87
2023-03-01T07:57:06.410Z,2.24
2023-03-01T07:59:33.537Z,1.83
2023-03-01T08:02:00.328Z,1.45
2023-03-01T08:04:27.649Z,1.16
2023-03-01T08:06:55.496Z,0.90
2023-03-01T08:09:22.595Z,0.72
2023-03-01T08:11:49.371Z,0.60
2023-03-01T08:14:15.996Z,0.52
2023-03-01T08:16:43.127Z,0.53
2023-03-01T08:19:13.029Z,0.68
2023-03-01T08:21:39.654Z,0.83
2023-03-01T08:24:07.280Z,0.87
2023-03-01T08:26:34.608Z,1.00
2023-03-01T08:29:02.066Z,1.14
2023-03-01T08:31:37.862Z,1.20
2023-03-01T08:34:11.275Z,1.26
2023-03-01T08:36:41.275Z,1.45
2023-03-01T08:39:09.724Z,1.55
2023-03-01T08:41:36.742Z,1.75
2023-03-01T08:44:04.108Z,2.26
2023-03-01T08:46:39.446Z,4.09
2023-03-01T08:49:07.979Z,6.61
2023-03-01T08:51:37.848Z,8.65
2023-03-01T08:54:11.246Z,10.30
2023-03-01T08:56:38.445Z,11.72
2023-03-01T08:59:05.288Z,12.44
2023-03-01T09:01:31.899Z,12.03
2023-03-01T09:03:59.430Z,13.01
2023-03-01T09:06:26.160Z,12.98
2023-03-01T09:08:52.886Z,11.53
2023-03-01T09:11:22.903Z,9.89
2023-03-01T09:13:50.466Z,8.44
2023-03-01T09:16:20.212Z,7.43
2023-03-01T09:18:51.201Z,6.86
2023-03-01T09:21:24.845Z,6.71
2023-03-01T09:23:58.306Z,6.81
2023-03-01T09:26:25.439Z,7.44
2023-03-01T09:28:55.832Z,9.76
2023-03-01T09:31:24.104Z,11.79
2023-03-01T09:33:53.317Z,13.59
2023-03-01T09:36:23.366Z,15.07
2023-03-01T09:38:50.616Z,15.87
2023-03-01T09:41:17.122Z,16.88
2023-03-01T09:43:47.919Z,16.43
2023-03-01T09:46:17.672Z,18.00
2023-03-01T09:48:56.336Z,18.98
2023-03-01T09:51:30.512Z,19.19
2023-03-01T09:53:59.552Z,18.95
2023-03-01T09:56:41.311Z,19.02
2023-03-01T09:59:16.973Z,20.10
2023-03-01T10:02:20.101Z,19.74
2023-03-01T10:04:49.589Z,19.75
2023-03-01T10:07:33.927Z,19.15
2023-03-01T10:10:01.493Z,17.94
2023-03-01T10:12:34.969Z,18.33
2023-03-01T10:15:11.542Z,18.00
2023-03-01T10:17:58.660Z,18.82
2023-03-01T10:20:37.353Z,19.78
2023-03-01T10:23:03.950Z,19.90
2023-03-01T10:25:45.790Z,19.40
2023-03-01T10:28:21.072Z,20.57
2023-03-01T10:30:47.807Z,19.13
2023-03-01T10:33:25.601Z,19.87
2023-03-01T10:35:52.496Z,19.41
2023-03-01T10:38:21.389Z,19.20
2023-03-01T10:41:00.202Z,18.45
2023-03-01T10:43:32.285Z,18.38
2023-03-01T10:45:58.973Z,17.53
2023-03-01T10:48:28.565Z,15.75
2023-03-01T10:51:01.285Z,14.23
2023-03-01T10:53:34.374Z,13.61
2023-03-01T10:56:07.886Z,12.71
2023-03-01T10:58:36.484Z,12.33
2023-03-01T11:01:28.407Z,12.13
2023-03-01T11:04:07.356Z,11.89
2023-03-01T11:06:39.324Z,11.37
2023-03-01T11:09:23.472Z,10.89
2023-03-01T11:11:54.854Z,10.93
2023-03-01T11:14:27.347Z,10.82
2023-03-01T11:17:16.574Z,10.56
2023-03-01T11:19:48.829Z,10.65
2023-03-01T11:22:22.976Z,10.58
2023-03-01T11:25:08.822Z,10.24
2023-03-01T11:27:41.984Z,10.05
2023-03-01T11:30:14.451Z,9.94
2023-03-01T11:32:48.680Z,9.73
2023-03-01T11:35:23.729Z,9.66
2023-03-01T11:38:19.531Z,10.20
2023-03-01T11:40:49.178Z,10.62
2023-03-01T11:43:30.941Z,11.44
2023-03-01T11:46:36.077Z,12.47
2023-03-01T11:49:21.947Z,13.67
2023-03-01T11:52:14.465Z,14.81
2023-03-01T11:54:49.696Z,15.39
2023-03-01T11:57:43.332Z,15.10
2023-03-01T12:00:48.030Z,14.99
2023-03-01T12:03:29.590Z,15.32
2023-03-01T12:06:05.874Z,15.50
2023-03-01T12:09:01.376Z,16.11
2023-03-01T12:11:43.559Z,15.36
2023-03-01T12:14:35.693Z,15.49
2023-03-01T12:17:26.011Z,15.20
2023-03-01T12:20:11.863Z,14.89
2023-03-01T12:22:44.406Z,14.83
2023-03-01T12:25:19.893Z,15.37
2023-03-01T12:28:01.326Z,15.34
2023-03-01T12:30:46.004Z,15.92
2023-03-01T12:33:30.847Z,15.64
2023-03-01T12:35:57.428Z,15.70
2023-03-01T12:38:29.818Z,15.02
2023-03-01T12:41:11.605Z,14.78
2023-03-01T12:43:56.433Z,14.89
2023-03-01T12:46:48.957Z,14.91
2023-03-01T12:49:19.960Z,15.02
2023-03-01T12:52:02.580Z,15.24
2023-03-01T12:54:36.500Z,15.30
2023-03-01T12:57:30.181Z,15.14
2023-03-01T13:00:24.074Z,15.32
2023-03-01T13:02:50.652Z,15.50
2023-03-01T13:05:25.172Z,15.37
2023-03-01T13:07:59.702Z,15.03
2023-03-01T13:11:06.017Z,14.57
2023-03-01T13:13:32.742Z,14.17
2023-03-01T13:16:31.974Z,14.52
2023-03-01T13:19:16.722Z,14.81
2023-03-01T13:21:46.031Z,14.65
2023-03-01T13:24:32.334Z,14.72
2023-03-01T13:27:08.137Z,14.54
2023-03-01T13:29:51.648Z,14.92
2023-03-01T13:32:41.631Z,15.16
2023-03-01T13:35:18.581Z,15.46
2023-03-01T13:37:45.645Z,15.58
2023-03-01T13:40:19.546Z,15.91
2023-03-01T13:43:04.837Z,16.13
2023-03-01T13:45:43.860Z,16.05
2023-03-01T13:48:12.752Z,15.72
2023-03-01T13:51:04.340Z,15.95
2023-03-01T13:53:35.064Z,15.90
2023-03-01T13:56:09.319Z,15.70
2023-03-01T13:58:48.764Z,15.77
2023-03-01T14:01:36.403Z,15.82
2023-03-01T14:04:04.996Z,16.21
2023-03-01T14:06:34.267Z,16.53
2023-03-01T14:09:15.697Z,16.15
2023-03-01T14:12:13.527Z,16.04
2023-03-01T14:15:03.605Z,16.13
2023-03-01T14:17:48.225Z,16.25
2023-03-01T14:20:27.483Z,16.15
2023-03-01T14:22:56.870Z,16.12
2023-03-01T14:25:33.044Z,15.55
2023-03-01T14:28:20.777Z,15.82
2023-03-01T14:30:50.568Z,15.63
2023-03-01T14:33:38.085Z,15.97
2023-03-01T14:36:13.189Z,15.50
2023-03-01T14:38:46.843Z,15.26
2023-03-01T14:41:22.087Z,15.33
2023-03-01T14:43:52.624Z,15.53
2023-03-01T14:46:27.382Z,15.30
2023-03-01T14:48:57.340Z,15.27
2023-03-01T14:51:24.101Z,15.27
2023-03-01T14:53:51.858Z,15.18
2023-03-01T14:56:19.728Z,15.04
2023-03-01T14:58:48.684Z,15.23
2023-03-01T15:01:17.549Z,14.85
2023-03-01T15:03:51.676Z,15.13
2023-03-01T15:06:20.831Z,14.98
2023-03-01T15:08:51.476Z,15.12
2023-03-01T15:11:19.893Z,14.76
2023-03-01T15:13:49.519Z,14.62
2023-03-01T15:16:23.764Z,14.07
2023-03-01T15:18:54.641Z,13.42
2023-03-01T15:21:29.509Z,12.64
2023-03-01T15:24:00.228Z,12.15
2023-03-01T15:26:33.108Z,11.67
2023-03-01T15:29:01.144Z,11.79
2023-03-01T15:31:36.394Z,11.82
2023-03-01T15:34:33.194Z,11.77
2023-03-01T15:37:02.644Z,11.14
2023-03-01T15:39:32.073Z,10.80
2023-03-01T15:41:58.663Z,10.31
2023-03-01T15:44:41.597Z,9.90
2023-03-01T15:47:30.779Z,9.55
2023-03-01T15:49:59.724Z,9.29
2023-03-01T15:52:37.552Z,9.16
2023-03-01T15:55:16.525Z,8.91
2023-03-01T15:57:43.442Z,8.63
2023-03-01T16:00:14.436Z,8.40
2023-03-01T16:02:42.927Z,8.22
2023-03-01T16:05:18.513Z,8.09
2023-03-01T16:07:45.050Z,7.96
2023-03-01T16:10:11.825Z,7.84
2023-03-01T16:12:40.122Z,7.70
2023-03-01T16:15:19.068Z,7.48
2023-03-01T16:17:46.387Z,7.31
2023-03-01T16:20:27.293Z,7.10
2023-03-01T16:22:55.167Z,6.88
2023-03-01T16:25:22.196Z,6.69
2023-03-01T16:27:51.851Z,6.52
2023-03-01T16:30:21.471Z,6.30
2023-03-01T16:32:49.216Z,6.13
2023-03-01T16:35:18.699Z,5.93
2023-03-01T16:37:46.037Z,5.76
2023-03-01T16:40:27.797Z,5.55
2023-03-01T16:43:01.020Z,5.38
2023-03-01T16:45:35.361Z,5.21
2023-03-01T16:48:03.600Z,5.07
2023-03-01T16:50:30.194Z,4.88
2023-03-01T16:52:56.879Z,4.73
2023-03-01T16:55:24.192Z,4.59
2023-03-01T16:57:52.044Z,4.42
2023-03-01T17:00:18.971Z,4.28
2023-03-01T17:02:46.551Z,4.12
2023-03-01T17:05:13.571Z,3.98
2023-03-01T17:07:40.835Z,3.82
2023-03-01T17:10:11.639Z,3.69
2023-03-01T17:12:39.065Z,3.57
2023-03-01T17:15:07.604Z,3.43
2023-03-01T17:17:35.630Z,3.29
2023-03-01T17:20:04.729Z,3.18
2023-03-01T17:22:31.603Z,3.10
2023-03-01T17:24:58.209Z,2.99
2023-03-01T17:27:25.596Z,2.85
2023-03-01T17:29:52.219Z,2.74
2023-03-01T17:32:19.010Z,2.64
2023-03-01T17:34:46.479Z,2.54
2023-03-01T17:37:13.100Z,2.42
2023-03-01T17:39:39.729Z,2.36
2023-03-01T17:42:07.024Z,2.31
2023-03-01T17:44:34.702Z,2.21
2023-03-01T17:47:02.836Z,2.14
2023-03-01T17:49:29.781Z,1.99
2023-03-01T17:51:56.373Z,1.90
2023-03-01T17:54:23.686Z,1.82
2023-03-01T17:56:50.979Z,1.75
2023-03-01T17:59:17.823Z,1.66
2023-03-01T18:01:44.947Z,1.61
2023-03-01T18:04:11.756Z,1.51
2023-03-01T18:06:40.617Z,1.44
2023-03-01T18:09:07.875Z,1.34
2023-03-01T18:11:35.655Z,1.26
2023-03-01T18:14:02.893Z,1.17
2023-03-01T18:16:31.799Z,1.04
2023-03-01T18:19:00.469Z,0.99
2023-03-01T18:21:28.401Z,0.91
2023-03-01T18:23:55.066Z,0.87
2023-03-01T18:26:22.837Z,0.80
2023-03-01T18:28:51.642Z,0.72
2023-03-01T18:31:22.123Z,0.65
2023-03-01T18:33:50.001Z,0.59
2023-03-01T18:36:21.842Z,0.50
2023-03-01T18:38:48.999Z,0.44
2023-03-01T18:41:16.308Z,0.37
2023-03-01T18:43:43.146Z,0.29
2023-03-01T18:46:10.766Z,0.25
2023-03-01T18:48:37.646Z,0.18
2023-03-01T18:51:12.267Z,0.09
2023-03-01T18:53:39.222Z,0.05
2023-03-01T18:56:07.390Z,-0.02
2023-03-01T18:58:34.036Z,-0.02
2023-03-01T19:01:04.039Z,-0.03
2023-03-01T19:03:31.312Z,-0.10
2023-03-01T19:06:00.810Z,-0.17
2023-03-01T19:08:29.367Z,-0.26
2023-03-01T19:10:58.242Z,-0.34
2023-03-01T19:13:25.093Z,-0.41
2023-03-01T19:15:51.724Z,-0.40
2023-03-01T19:18:18.643Z,-0.51
2023-03-01T19:20:46.770Z,-0.56
2023-03-01T19:23:15.124Z,-0.60
2023-03-01T19:25:41.782Z,-0.65
2023-03-01T19:28:08.382Z,-0.68
2023-03-01T19:30:34.921Z,-0.72
2023-03-01T19:33:01.652Z,-0.72
2023-03-01T19:35:28.200Z,-0.78
2023-03-01T19:37:54.773Z,-0.77
2023-03-01T19:40:21.358Z,-0.77
2023-03-01T19:42:47.959Z,-0.78
2023-03-01T19:45:16.027Z,-0.85
2023-03-01T19:47:47.215Z,-0.89
2023-03-01T19:50:13.816Z,-0.95
2023-03-01T19:52:40.379Z,-1.01
2023-03-01T19:55:09.912Z,-1.02
2023-03-01T19:57:36.977Z,-1.03
2023-03-01T20:00:04.085Z,-1.06
2023-03-01T20:02:30.958Z,-1.09
2023-03-01T20:04:57.631Z,-1.15
2023-03-01T20:07:24.198Z,-1.23
2023-03-01T20:09:50.916Z,-1.25
2023-03-01T20:12:19.222Z,-1.26
2023-03-01T20:14:46.438Z,-1.30
2023-03-01T20:17:13.026Z,-1.36
2023-03-01T20:19:39.879Z,-1.40
2023-03-01T20:22:06.534Z,-1.42
2023-03-01T20:24:33.409Z,-1.46
2023-03-01T20:27:02.722Z,-1.49
2023-03-01T20:29:29.266Z,-1.50
2023-03-01T20:31:56.929Z,-1.49
2023-03-01T20:34:23.679Z,-1.53
2023-03-01T20:36:50.362Z,-1.56
2023-03-01T20:39:17.283Z,-1.57
2023-03-01T20:41:44.140Z,-1.66
2023-03-01T20:44:10.975Z,-1.67
2023-03-01T20:46:38.487Z,-1.74
2023-03-01T20:49:05.824Z,-1.75
2023-03-01T20:51:32.472Z,-1.74
2023-03-01T20:53:59.077Z,-1.80
2023-03-01T20:56:27.059Z,-1.80
2023-03-01T20:58:57.557Z,-1.83
2023-03-01T21:01:24.631Z,-1.83
2023-03-01T21:03:52.023Z,-1.87
2023-03-01T21:06:18.794Z,-1.83
2023-03-01T21:08:45.343Z,-1.90
2023-03-01T21:11:12.013Z,-1.92
2023-03-01T21:13:38.792Z,-1.97
2023-03-01T21:16:10.256Z,-2.01
2023-03-01T21:18:37.411Z,-2.06
2023-03-01T21:21:07.724Z,-2.06
2023-03-01T21:23:35.740Z,-2.09
2023-03-01T21:26:24.486Z,-2.11
2023-03-01T21:28:57.812Z,-2.16
2023-03-01T21:31:29.565Z,-2.16
2023-03-01T21:33:58.859Z,-2.21
2023-03-01T21:36:26.953Z,-2.21
2023-03-01T21:38:54.145Z,-2.21
2023-03-01T21:41:24.391Z,-2.19
2023-03-01T21:43:53.411Z,-2.25
2023-03-01T21:46:23.089Z,-2.22
2023-03-01T21:48:52.372Z,-2.26
2023-03-01T21:51:21.237Z,-2.29
2023-03-01T21:53:48.161Z,-2.36
2023-03-01T21:56:19.728Z,-2.35
2023-03-01T21:58:46.604Z,-2.39
2023-03-01T22:01:19.458Z,-2.43
2023-03-01T22:03:46.269Z,-2.45
2023-03-01T22:06:42.299Z,-2.46
2023-03-01T22:09:21.083Z,-2.50
2023-03-01T22:11:54.430Z,-2.52
2023-03-01T22:14:24.358Z,-2.53
2023-03-01T22:16:54.112Z,-2.52
2023-03-01T22:19:21.859Z,-2.52
2023-03-01T22:21:51.407Z,-2.54
2023-03-01T22:24:20.768Z,-2.56
2023-03-01T22:26:48.796Z,-2.57
2023-03-01T22:29:20.881Z,-2.59
2023-03-01T22:31:47.835Z,-2.59
2023-03-01T22:34:16.970Z,-2.62
2023-03-01T22:36:44.584Z,-2.63
2023-03-01T22:39:14.563Z,-2.67
2023-03-01T22:41:44.317Z,-2.70
2023-03-01T22:44:14.035Z,-2.70
2023-03-01T22:46:41.462Z,-2.69
2023-03-01T22:49:09.947Z,-2.70
2023-03-01T22:51:39.490Z,-2.73
2023-03-01T22:54:07.859Z,-2.76
2023-03-01T22:56:36.745Z,-2.80
2023-03-01T22:59:09.562Z,-2.79
2023-03-01T23:01:37.307Z,-2.80
2023-03-01T23:04:04.327Z,-2.81
2023-03-01T23:06:31.337Z,-2.83
2023-03-01T23:09:00.580Z,-2.80
2023-03-01T23:11:27.969Z,-2.81
2023-03-01T23:13:55.482Z,-2.83
2023-03-01T23:16:26.474Z,-2.85
2023-03-01T23:18:55.516Z,-2.90
2023-03-01T23:21:22.880Z,-2.91
2023-03-01T23:23:50.015Z,-2.91
2023-03-01T23:26:18.537Z,-2.87
2023-03-01T23:28:45.083Z,-2.87
2023-03-01T23:31:13.918Z,-2.88
2023-03-01T23:33:43.182Z,-2.90
2023-03-01T23:36:23.219Z,-2.98
2023-03-01T23:38:52.267Z,-3.00
2023-03-01T23:41:21.251Z,-3.03
2023-03-01T23:43:52.687Z,-3.07
2023-03-01T23:46:21.778Z,-3.09
2023-03-01T23:48:49.290Z,-3.08
2023-03-01T23:51:17.746Z,-3.09
2023-03-01T23:53:54.212Z,-3.15
2023-03-01T23:56:26.258Z,-3.12
2023-03-01T23:59:00.880Z,-3.12
